Dati Storici

Data ora Umidita' aria (%) Temperatura aria (°C) Rad globale (W/m²) Gonioanemometro (°) Tacoanemometro (m/s) Pioggia (mm)
18-12-2018 13:40 58.2 % 8.12 316.207 330.837 1.004 0
18-12-2018 13:30 57.8 % 8.031 327.21 335.607 1.582 0
18-12-2018 13:20 56.4 % 7.944 341.81 280.096 1.106 0
18-12-2018 13:10 57.5 % 8.447 350.686 340.419 0.61 0.2
18-12-2018 13:00 58.1 % 8.104 360.064 52.391 0.518 0
18-12-2018 12:50 58.8 % 8.327 366.5 346.373 0.649 0
18-12-2018 12:40 59.1 % 7.299 372.099 41.19 1.447 0
18-12-2018 12:30 59 % 7.58 377.957 300.035 1.592 0
18-12-2018 12:20 60.2 % 7.447 379.539 -0.264 0.602 0
18-12-2018 12:10 60.6 % 6.886 380.419 48.607 0.601 0
18-12-2018 12:00 60.4 % 6.448 382.075 31.134 1.69 0
18-12-2018 11:50 61.4 % 6.81 378.341 52.665 0.678 0
18-12-2018 11:40 61.5 % 6.559 374.109 24.581 1.051 0
18-12-2018 11:30 64.3 % 6.807 367.468 92.641 0.076 0
18-12-2018 11:20 66.6 % 5.597 361.237 120.315 0.344 0
18-12-2018 11:10 66.7 % 5.237 355.195 13.308 1.458 0
18-12-2018 11:00 67.8 % 4.857 345.737 22.358 1.864 0
18-12-2018 10:50 69 % 4.552 335.269 29.569 1.088 0
18-12-2018 10:40 69.5 % 4.122 323.868 345.864 1.634 0
18-12-2018 10:30 70.8 % 4.004 310.034 95.104 0.908 0

I dati sono presentati in modo automatico a scopo informativo. In seguito a verifica i dati possono subire modifiche o essere invalidati e non riportati negli archivi definitivi.